Flight Track Log - Related Links

Times and Time Zones

All times are in EDT time to prevent confusion due to time zone crossing. See the N158BH flight status page for this flight to view local times or setup timezone preferences in your user account.

Time Position Orientation Groundspeed Altitude Reporting Facility
EDT Latitude Longitude Course Direction KTS MPH feet Rate Location/Type
Fri 11:00:35 AM 30.6514 -85.6889 19° North 175 201 5,100  Level Jacksonville Center
Fri 11:01:36 AM 30.7039 -85.6711 16° North 192 221 5,100  Level Jacksonville Center
Fri 11:02:37 AM 30.7564 -85.6508 18° North 191 220 5,100 -49 Level Jacksonville Center
Fri 11:03:38 AM 30.7986 -85.6328 20° North 147 169 5,000  Descending Jacksonville Center
Fri 11:04:39 AM 30.8239 -85.6189 25° Northeast 91 105 5,100 49 Climbing Jacksonville Center
Fri 11:05:00 AM 30.5904 -85.7128 17° North  Level Estimated
Fri 11:05:40 AM 30.8431 -85.6097 22° Northeast 70 81 5,100  Level Jacksonville Center
Fri 11:06:41 AM 30.8508 -85.6294 295° West 69 79 4,900 -148 Descending Jacksonville Center
Fri 11:07:42 AM 30.8608 -85.6539 295° West 81 93 4,800 99 Descending Jacksonville Center
Fri 11:08:42 AM 30.8725 -85.6881 292° West 136 157 5,100 149 Climbing Jacksonville Center
Fri 11:09:43 AM 30.8928 -85.7200 306° West 156 180 5,100  Level Jacksonville Center
Fri 11:10:50 AM 30.9386 -85.7192 North 147 169 5,100  Level Jacksonville Center
Fri 11:11:51 AM 30.9472 -85.7144 25° Northeast 126 145 5,100 -94 Level Jacksonville Center
Fri 11:12:58 AM 30.9461 -85.6661 92° East 146 168 4,900 -47 Descending Jacksonville Center
Fri 11:13:59 AM 30.9428 -85.6319 96° East 107 123 5,000 98 Climbing Jacksonville Center
Fri 11:15:00 AM 30.9353 -85.5858 101° East 149 171 5,100 -103 Climbing Jacksonville Center
Fri 11:15:55 AM 30.9019 -85.5847 178° South 119 137 4,800  Descending Jacksonville Center
Fri 11:17:02 AM 30.8664 -85.5839 179° South 138 159 5,100 148 Climbing Jacksonville Center
Fri 11:17:57 AM 30.8472 -85.6075 227° Southwest 150 173 5,100 -155 Level Jacksonville Center
Fri 11:18:58 AM 30.8464 -85.6436 268° West 105 121 4,800  Descending Jacksonville Center
Fri 11:19:58 AM 30.8456 -85.6847 269° West 146 168 5,100 149 Climbing Jacksonville Center
Fri 11:20:59 AM 30.8528 -85.7311 280° West 153 176 5,100 -52 Level Jacksonville Center
Fri 11:21:54 AM 30.8444 -85.7381 216° Southwest 147 169 5,000  Descending Jacksonville Center
Fri 11:23:01 AM 30.8419 -85.7475 253° West 150 173 5,100 98 Climbing Jacksonville Center
Fri 11:23:56 AM 30.8647 -85.7556 343° North 164 189 5,200  Climbing Jacksonville Center
Fri 11:24:57 AM 30.8992 -85.7131 47° Northeast 186 214 5,100 -344 Descending Jacksonville Center
Fri 11:25:58 AM 30.9419 -85.6708 40° Northeast 198 228 4,500 -595 Descending Jacksonville Center
Fri 11:26:58 AM 30.9867 -85.6261 41° Northeast 206 237 3,900 -595 Descending Jacksonville Center
Fri 11:27:59 AM 31.0333 -85.5886 35° Northeast 207 238 3,300 -393 Descending Jacksonville Center
Fri 11:29:00 AM 31.0781 -85.5461 39° Northeast 198 228 3,100 -98 Descending Jacksonville Center
Fri 11:30:01 AM 31.1142 -85.5181 34° Northeast 169 194 3,100 -149 Level Jacksonville Center
Fri 11:31:01 AM 31.1567 -85.4853 33° Northeast 166 191 2,800 -446 Descending Jacksonville Center
Fri 11:32:02 AM 31.2011 -85.4597 26° Northeast 168 193 2,200 -393 Descending Jacksonville Center
Fri 11:33:03 AM 31.2369 -85.4364 29° Northeast 159 183 2,000 -197 Descending Jacksonville Center
Fri 11:34:04 AM 31.2708 -85.4181 25° Northeast 123 142 1,800 -537 Descending Jacksonville Center
Fri 11:35:17 AM 31.3039 -85.4311 341° North 116 133 800 -822 Descending Jacksonville Center

Login

Don't have an account? Register now (free) for customized features, flight alerts, and more!